Time;durP1;ratioP1;P1;durP2;ratioP2;P2;SDS_P1;SDS_P2;PMS_P1;PMS_P2;Temp;Humidity;BMP_temperature;BMP_pressure;BME280_temperature;BME280_humidity;BME280_pressure;Samples;Min_cycle;Max_cycle;Signal;HPM_P1;HPM_P2
2024/01/15 00:00:06;;;;;;;6.47;4.70;;;2.50;99.90;1.10;98552.00;;;;4955486;28;109050;-72
2024/01/15 00:02:31;;;;;;;7.27;4.90;;;1.40;99.90;1.10;98552.00;;;;4955979;28;107126;-74
2024/01/15 00:04:57;;;;;;;6.53;3.90;;;1.40;99.90;1.10;98542.00;;;;4956474;28;117111;-71
2024/01/15 00:07:23;;;;;;;8.30;4.73;;;1.40;99.90;1.10;98546.00;;;;4951581;28;87759;-71
2024/01/15 00:09:51;;;;;;;8.57;5.80;;;1.40;99.90;1.10;98536.00;;;;4954582;28;108803;-73
2024/01/15 00:12:16;;;;;;;10.63;5.53;;;1.50;99.90;1.10;98525.00;;;;4957013;28;88058;-74
2024/01/15 00:14:42;;;;;;;5.50;4.60;;;1.40;99.90;1.10;98520.00;;;;4961602;28;95430;-71
2024/01/15 00:17:08;;;;;;;6.13;3.90;;;1.40;99.90;1.10;98525.00;;;;4956981;28;87788;-71
2024/01/15 00:19:33;;;;;;;7.83;5.27;;;1.30;99.90;1.10;98525.00;;;;4953513;28;89986;-70
2024/01/15 00:21:59;;;;;;;5.90;4.37;;;1.40;99.90;1.10;98518.00;;;;4955837;28;94692;-73
2024/01/15 00:24:25;;;;;;;6.60;5.50;;;1.50;99.90;1.10;98513.00;;;;4954635;28;88951;-71
2024/01/15 00:26:51;;;;;;;8.07;5.40;;;1.40;99.90;1.20;98519.00;;;;4953804;28;110592;-73
2024/01/15 00:29:16;;;;;;;7.63;4.83;;;1.50;99.90;1.20;98519.00;;;;4957303;28;87698;-73
2024/01/15 00:31:42;;;;;;;7.67;4.87;;;2.50;99.90;1.20;98510.00;;;;4956997;28;88113;-71
2024/01/15 00:34:08;;;;;;;8.40;4.50;;;1.50;99.90;1.20;98500.00;;;;4955684;28;102215;-70
2024/01/15 00:36:33;;;;;;;8.87;5.07;;;1.50;99.90;1.30;98498.00;;;;4951499;28;87879;-71
2024/01/15 00:38:59;;;;;;;6.07;4.57;;;1.50;99.90;1.30;98491.00;;;;4951380;28;108024;-72
2024/01/15 00:41:27;;;;;;;6.10;4.47;;;1.60;99.90;1.30;98507.00;;;;4934806;28;117997;-71
2024/01/15 00:43:53;;;;;;;9.27;5.07;;;1.50;99.90;1.30;98508.00;;;;4956120;28;88261;-71
2024/01/15 00:46:19;;;;;;;6.33;4.13;;;1.70;99.90;1.40;98490.00;;;;4960131;28;88881;-72
2024/01/15 00:48:45;;;;;;;5.93;3.93;;;1.60;99.90;1.40;98501.00;;;;4965107;28;107416;-71
2024/01/15 00:51:10;;;;;;;5.80;4.47;;;1.70;99.90;1.40;98493.00;;;;4965790;28;90321;-71
2024/01/15 00:53:36;;;;;;;6.17;3.50;;;1.80;99.90;1.40;98489.00;;;;4955810;28;117414;-71
2024/01/15 00:56:03;;;;;;;13.83;4.80;;;2.50;99.90;1.40;98487.00;;;;4951962;28;87879;-73
2024/01/15 00:58:28;;;;;;;4.70;3.50;;;1.70;99.90;1.40;98476.00;;;;4955336;28;87796;-72
2024/01/15 01:00:55;;;;;;;5.17;4.10;;;1.70;99.90;1.50;98475.00;;;;4955918;28;118088;-73
2024/01/15 01:03:20;;;;;;;5.57;3.67;;;1.70;99.90;1.50;98467.00;;;;4956758;28;87568;-71
2024/01/15 01:05:49;;;;;;;5.67;4.20;;;1.80;99.90;1.50;98458.00;;;;4958289;28;87676;-71
2024/01/15 01:08:15;;;;;;;4.77;3.07;;;1.70;99.90;1.50;98478.00;;;;4959287;28;87417;-74
2024/01/15 01:10:42;;;;;;;8.13;5.07;;;1.70;99.90;1.50;98467.00;;;;4954635;28;108625;-73
2024/01/15 01:13:08;;;;;;;5.13;3.97;;;1.80;99.90;1.50;98457.00;;;;4960625;28;87851;-73
2024/01/15 01:15:34;;;;;;;4.57;3.30;;;1.80;99.90;1.50;98461.00;;;;4964625;28;87703;-71
2024/01/15 01:18:00;;;;;;;3.30;3.00;;;2.00;99.90;1.50;98459.00;;;;4958484;28;109655;-73
2024/01/15 01:20:25;;;;;;;5.43;4.63;;;1.60;99.90;1.50;98463.00;;;;4957597;28;117920;-70
2024/01/15 01:22:51;;;;;;;4.80;4.40;;;1.90;99.90;1.50;98468.00;;;;4955675;28;117902;-71
2024/01/15 01:25:17;;;;;;;6.13;3.90;;;1.80;99.90;1.60;98455.00;;;;4967086;28;98092;-71
2024/01/15 01:27:42;;;;;;;6.10;3.37;;;1.80;99.90;1.50;98460.00;;;;4956080;28;108635;-70
2024/01/15 01:30:09;;;;;;;3.77;3.27;;;1.80;99.90;1.50;98458.00;;;;4955584;28;115846;-71
2024/01/15 01:32:37;;;;;;;6.97;4.07;;;1.90;99.90;1.50;98447.00;;;;4956286;28;93075;-70
2024/01/15 01:35:03;;;;;;;7.03;3.80;;;2.20;99.90;1.50;98452.00;;;;4955592;28;88685;-70
2024/01/15 01:37:28;;;;;;;2.83;2.63;;;1.90;99.90;1.60;98448.00;;;;4953589;28;100252;-69
2024/01/15 01:39:54;;;;;;;5.63;3.47;;;0.90;99.90;1.60;98448.00;;;;4970009;28;88884;-70
2024/01/15 01:42:20;;;;;;;7.60;4.00;;;1.80;99.90;1.60;98445.00;;;;4948813;28;116560;-69
2024/01/15 01:44:45;;;;;;;5.13;3.13;;;1.90;99.90;1.60;98449.00;;;;4954748;28;110496;-70
2024/01/15 01:47:12;;;;;;;5.47;3.77;;;1.90;99.90;1.60;98425.00;;;;4955137;28;109011;-71
2024/01/15 01:49:38;;;;;;;5.77;4.57;;;1.80;99.90;1.60;98429.00;;;;4955867;28;116719;-71
2024/01/15 01:52:07;;;;;;;7.07;4.03;;;2.00;99.90;1.60;98426.00;;;;4958292;28;89094;-70
2024/01/15 01:54:33;;;;;;;5.20;4.17;;;1.90;99.90;1.60;98429.00;;;;4956015;28;87646;-70
2024/01/15 01:57:02;;;;;;;3.70;2.77;;;1.90;99.90;1.60;98418.00;;;;4954499;28;97483;-70
2024/01/15 01:59:28;;;;;;;6.27;3.67;;;1.90;99.90;1.60;98419.00;;;;4947638;28;111559;-71
2024/01/15 02:01:58;;;;;;;5.27;4.07;;;1.80;99.90;1.60;98422.00;;;;4968818;28;118089;-69
2024/01/15 02:04:24;;;;;;;6.70;3.93;;;1.90;99.90;1.60;98414.00;;;;4950209;28;88170;-69
2024/01/15 02:06:51;;;;;;;3.80;3.00;;;1.90;99.90;1.60;98414.00;;;;4952399;28;94989;-70
2024/01/15 02:09:18;;;;;;;4.20;3.30;;;1.90;99.90;1.60;98405.00;;;;4951976;28;88665;-70
2024/01/15 02:11:46;;;;;;;5.60;4.23;;;1.90;99.90;1.60;98409.00;;;;4954656;28;94518;-71
2024/01/15 02:14:12;;;;;;;6.07;3.37;;;1.90;99.90;1.60;98402.00;;;;4953979;28;87691;-71
2024/01/15 02:16:37;;;;;;;6.00;3.73;;;2.00;99.90;1.60;98406.00;;;;4946850;28;108475;-69
2024/01/15 02:19:03;;;;;;;5.67;3.30;;;2.00;99.90;1.60;98402.00;;;;4950387;28;118011;-70
2024/01/15 02:21:29;;;;;;;7.57;3.30;;;2.30;99.90;1.60;98406.00;;;;4956266;28;116627;-69
2024/01/15 02:23:55;;;;;;;4.33;3.27;;;2.00;99.90;1.60;98411.00;;;;4960230;28;88703;-69
2024/01/15 02:26:21;;;;;;;4.47;2.90;;;2.00;99.90;1.60;98409.00;;;;4965727;28;88935;-70
2024/01/15 02:28:48;;;;;;;7.17;3.67;;;1.90;99.90;1.60;98404.00;;;;4961736;28;117236;-70
2024/01/15 02:31:14;;;;;;;4.43;3.50;;;2.00;99.90;1.60;98399.00;;;;4971016;28;107554;-70
2024/01/15 02:33:42;;;;;;;7.27;4.33;;;2.60;99.90;1.60;98396.00;;;;4960182;28;108927;-71
2024/01/15 02:36:08;;;;;;;4.00;3.47;;;1.90;99.90;1.60;98397.00;;;;4960809;28;87933;-70
2024/01/15 02:38:33;;;;;;;6.33;3.63;;;1.90;99.90;1.60;98384.00;;;;4959447;28;87925;-69
2024/01/15 02:40:59;;;;;;;4.97;3.07;;;1.90;99.90;1.60;98399.00;;;;4959831;28;117220;-69
2024/01/15 02:43:25;;;;;;;5.77;3.27;;;1.90;99.90;1.60;98389.00;;;;4956467;28;103782;-69
2024/01/15 02:45:50;;;;;;;6.33;4.13;;;1.90;99.90;1.60;98395.00;;;;4956912;28;108940;-71
2024/01/15 02:48:16;;;;;;;4.53;3.43;;;2.00;99.90;1.60;98385.00;;;;4957560;28;110033;-70
2024/01/15 02:50:42;;;;;;;4.50;3.20;;;1.90;99.90;1.60;98393.00;;;;4957359;28;118468;-70
2024/01/15 02:53:07;;;;;;;4.50;3.77;;;1.50;99.90;1.60;98397.00;;;;4955478;28;110347;-70
2024/01/15 02:55:33;;;;;;;4.43;3.47;;;1.80;99.90;1.60;98380.00;;;;4960331;28;108907;-70
2024/01/15 02:57:59;;;;;;;7.27;3.57;;;1.90;99.90;1.60;98392.00;;;;4955067;28;117022;-69
2024/01/15 03:00:25;;;;;;;7.10;4.80;;;1.80;99.90;1.60;98391.00;;;;4968115;28;117156;-70
2024/01/15 03:02:51;;;;;;;6.37;3.93;;;1.90;99.90;1.60;98397.00;;;;4959391;28;88687;-70
2024/01/15 03:05:17;;;;;;;6.00;4.67;;;1.80;99.90;1.60;98393.00;;;;4957767;28;86809;-70
2024/01/15 03:07:43;;;;;;;5.13;3.33;;;2.60;99.90;1.50;98393.00;;;;4960184;28;87641;-72
2024/01/15 03:10:09;;;;;;;7.17;3.87;;;1.90;99.90;1.50;98389.00;;;;4955021;28;87851;-71
2024/01/15 03:12:35;;;;;;;5.57;4.23;;;2.10;99.90;1.50;98399.00;;;;4961040;28;88569;-71
2024/01/15 03:15:01;;;;;;;6.40;4.23;;;1.70;99.90;1.50;98393.00;;;;4956854;28;108994;-70
2024/01/15 03:17:26;;;;;;;6.97;4.30;;;1.90;99.90;1.50;98403.00;;;;4959302;28;109403;-68
2024/01/15 03:19:52;;;;;;;6.00;3.90;;;1.80;99.90;1.50;98398.00;;;;4958814;28;118181;-70
2024/01/15 03:22:18;;;;;;;4.37;3.97;;;1.80;99.90;1.60;98399.00;;;;4955124;28;87483;-72
2024/01/15 03:24:44;;;;;;;5.10;4.00;;;1.80;99.90;1.50;98393.00;;;;4955878;28;108284;-71
2024/01/15 03:27:10;;;;;;;4.97;3.83;;;1.80;99.90;1.60;98390.00;;;;4957175;28;88637;-71
2024/01/15 03:29:36;;;;;;;4.60;3.83;;;1.70;99.90;1.60;98395.00;;;;4959156;28;87095;-72
2024/01/15 03:32:02;;;;;;;6.50;3.43;;;1.90;99.90;1.60;98407.00;;;;4948048;28;87865;-72
2024/01/15 03:34:28;;;;;;;4.17;3.53;;;1.90;99.90;1.60;98401.00;;;;4974362;28;87740;-71
2024/01/15 03:36:54;;;;;;;5.87;3.30;;;1.90;99.90;1.60;98399.00;;;;4956998;28;89009;-70
2024/01/15 03:39:19;;;;;;;6.70;3.50;;;1.90;99.90;1.60;98383.00;;;;4955295;28;89181;-71
2024/01/15 03:41:45;;;;;;;8.93;4.33;;;2.00;99.90;1.60;98405.00;;;;4956224;28;109149;-72
2024/01/15 03:44:11;;;;;;;4.10;2.83;;;2.00;99.90;1.60;98409.00;;;;4957268;28;105099;-71
2024/01/15 03:46:36;;;;;;;6.60;4.27;;;1.90;99.90;1.60;98419.00;;;;4960790;28;117057;-71
2024/01/15 03:49:02;;;;;;;8.87;3.17;;;1.80;99.90;1.60;98424.00;;;;4971237;28;116400;-71
2024/01/15 03:51:28;;;;;;;10.13;4.40;;;1.90;99.90;1.60;98419.00;;;;4958588;28;109581;-70
2024/01/15 03:53:53;;;;;;;4.83;3.37;;;1.90;99.90;1.60;98408.00;;;;4956380;28;108696;-69
2024/01/15 03:56:19;;;;;;;4.23;3.23;;;2.00;99.90;1.60;98407.00;;;;4957428;28;87802;-70
2024/01/15 03:58:45;;;;;;;3.47;2.40;;;1.80;99.90;1.60;98401.00;;;;4957822;28;119607;-70
2024/01/15 04:01:11;;;;;;;5.00;3.30;;;1.90;99.90;1.60;98407.00;;;;4953011;28;109355;-70
2024/01/15 04:03:37;;;;;;;6.60;3.87;;;1.90;99.90;1.60;98402.00;;;;4954313;28;87719;-69
2024/01/15 04:06:05;;;;;;;5.00;3.23;;;1.80;99.90;1.60;98399.00;;;;4954999;28;87809;-71
2024/01/15 04:08:31;;;;;;;6.13;4.13;;;1.80;99.90;1.60;98423.00;;;;4966312;28;110949;-70
2024/01/15 04:10:57;;;;;;;6.63;3.33;;;1.80;99.90;1.60;98411.00;;;;4957326;28;87762;-70
2024/01/15 04:13:22;;;;;;;5.23;2.70;;;1.80;99.90;1.60;98411.00;;;;4954139;28;87830;-70
2024/01/15 04:15:48;;;;;;;4.03;3.43;;;1.80;99.90;1.60;98414.00;;;;4952748;28;118681;-70
2024/01/15 04:18:17;;;;;;;8.20;3.83;;;2.90;99.90;1.60;98398.00;;;;4959426;28;118365;-72
2024/01/15 04:20:42;;;;;;;3.47;3.10;;;1.90;99.90;1.60;98397.00;;;;4956493;28;88189;-71
2024/01/15 04:23:08;;;;;;;3.53;2.77;;;1.80;99.90;1.50;98411.00;;;;4957627;28;104451;-72
2024/01/15 04:25:34;;;;;;;6.43;3.30;;;1.80;99.90;1.60;98405.00;;;;4954496;28;88941;-72
2024/01/15 04:28:00;;;;;;;5.50;3.27;;;1.90;99.90;1.50;98402.00;;;;4956341;28;88646;-71
2024/01/15 04:30:25;;;;;;;8.83;3.20;;;1.70;99.90;1.50;98400.00;;;;4954603;28;87632;-71
2024/01/15 04:32:51;;;;;;;6.03;3.60;;;1.80;99.90;1.50;98406.00;;;;4961122;28;107806;-72
2024/01/15 04:35:17;;;;;;;7.30;3.97;;;1.70;99.90;1.50;98407.00;;;;4957532;28;116962;-71
2024/01/15 04:37:43;;;;;;;4.07;3.27;;;1.80;99.90;1.50;98399.00;;;;4947929;28;87741;-70
2024/01/15 04:40:09;;;;;;;3.50;2.77;;;1.90;99.90;1.50;98406.00;;;;4956435;28;87667;-70
2024/01/15 04:42:35;;;;;;;5.20;3.60;;;1.90;99.90;1.60;98389.00;;;;4957256;28;87207;-71
2024/01/15 04:45:00;;;;;;;5.53;3.23;;;1.80;99.90;1.60;98401.00;;;;4957568;28;118108;-71
2024/01/15 04:47:26;;;;;;;4.80;3.43;;;2.80;99.90;1.60;98390.00;;;;4959043;28;88217;-71
2024/01/15 04:49:52;;;;;;;6.93;3.43;;;1.80;99.90;1.60;98407.00;;;;4957122;28;109558;-71
2024/01/15 04:52:17;;;;;;;3.77;2.93;;;1.90;99.90;1.60;98391.00;;;;4960515;28;87556;-69
2024/01/15 04:54:43;;;;;;;5.17;2.70;;;2.00;99.90;1.60;98411.00;;;;4955958;28;117732;-69
2024/01/15 04:57:09;;;;;;;4.43;2.83;;;1.90;99.90;1.50;98394.00;;;;4956308;28;88839;-71
2024/01/15 04:59:34;;;;;;;5.50;3.43;;;1.80;99.90;1.50;98398.00;;;;4970203;28;110285;-70
2024/01/15 05:02:00;;;;;;;6.47;2.73;;;1.80;99.90;1.50;98400.00;;;;4958763;28;92557;-69
2024/01/15 05:04:26;;;;;;;4.50;2.83;;;1.80;99.90;1.50;98397.00;;;;4953606;28;88307;-70
2024/01/15 05:06:53;;;;;;;3.90;2.70;;;1.70;99.90;1.50;98405.00;;;;4963115;28;88853;-70
2024/01/15 05:09:19;;;;;;;5.63;3.30;;;1.80;99.90;1.50;98391.00;;;;4966305;28;87857;-71
2024/01/15 05:11:44;;;;;;;4.93;2.80;;;1.90;99.90;1.50;98393.00;;;;4955404;28;108817;-71
2024/01/15 05:14:10;;;;;;;4.77;3.33;;;1.70;99.90;1.50;98394.00;;;;4964697;28;88971;-69
2024/01/15 05:16:39;;;;;;;4.47;2.50;;;1.70;99.90;1.50;98395.00;;;;4956470;28;117453;-69
2024/01/15 05:19:07;;;;;;;3.80;3.20;;;1.80;99.90;1.50;98390.00;;;;4955415;28;87712;-70
2024/01/15 05:21:33;;;;;;;4.90;3.00;;;1.90;99.90;1.50;98379.00;;;;4958780;28;87751;-70
2024/01/15 05:23:58;;;;;;;3.23;2.57;;;1.80;99.90;1.50;98362.00;;;;4960047;28;118143;-70
2024/01/15 05:26:24;;;;;;;5.13;2.90;;;1.70;99.90;1.50;98394.00;;;;4957132;28;117778;-71
2024/01/15 05:28:50;;;;;;;6.50;3.53;;;1.00;99.90;1.50;98387.00;;;;4956183;28;87813;-70
2024/01/15 05:31:16;;;;;;;6.47;3.77;;;1.80;99.90;1.50;98394.00;;;;4955203;28;107668;-69
2024/01/15 05:33:41;;;;;;;5.10;3.10;;;1.90;99.90;1.50;98383.00;;;;4956600;28;117454;-69
2024/01/15 05:36:07;;;;;;;5.20;3.27;;;1.70;99.90;1.50;98404.00;;;;4960533;28;90515;-70
2024/01/15 05:38:32;;;;;;;3.70;2.93;;;1.90;99.90;1.50;98386.00;;;;4958102;28;100922;-70
2024/01/15 05:40:58;;;;;;;4.90;2.90;;;1.80;99.90;1.50;98384.00;;;;4957510;28;107903;-70
2024/01/15 05:43:24;;;;;;;5.03;3.57;;;1.90;99.90;1.50;98388.00;;;;4953133;28;116483;-69
2024/01/15 05:45:49;;;;;;;6.97;3.57;;;1.80;99.90;1.50;98371.00;;;;4950235;28;116315;-71
2024/01/15 05:48:15;;;;;;;4.77;3.47;;;2.20;99.90;1.50;98380.00;;;;4951858;28;109006;-70
2024/01/15 05:50:41;;;;;;;5.40;3.03;;;1.70;99.90;1.50;98384.00;;;;4952666;28;107757;-71
2024/01/15 05:53:07;;;;;;;4.43;2.63;;;1.90;99.90;1.50;98381.00;;;;4945144;28;117859;-70
2024/01/15 05:55:34;;;;;;;3.50;2.80;;;1.90;99.90;1.50;98363.00;;;;4931123;28;89544;-70
2024/01/15 05:58:00;;;;;;;3.83;2.93;;;1.80;99.90;1.40;98381.00;;;;4952833;28;101135;-70
2024/01/15 06:00:26;;;;;;;8.27;3.30;;;1.70;99.90;1.40;98380.00;;;;4957972;28;87660;-70
2024/01/15 06:02:51;;;;;;;6.43;3.67;;;2.80;99.90;1.40;98369.00;;;;4951513;28;88695;-71
2024/01/15 06:05:18;;;;;;;6.33;3.93;;;2.60;99.90;1.50;98365.00;;;;4949424;28;89636;-70
2024/01/15 06:07:44;;;;;;;4.43;2.83;;;2.30;99.90;1.50;98373.00;;;;4947930;28;112824;-70
2024/01/15 06:10:09;;;;;;;4.60;2.67;;;1.70;99.90;1.50;98370.00;;;;4950361;28;107756;-68
2024/01/15 06:12:35;;;;;;;4.03;2.70;;;2.20;99.90;1.50;98357.00;;;;4949418;28;104597;-70
2024/01/15 06:15:01;;;;;;;3.53;2.60;;;1.80;99.90;1.50;98352.00;;;;4942932;28;116869;-70
2024/01/15 06:17:26;;;;;;;4.63;3.33;;;1.80;99.90;1.50;98366.00;;;;4951278;28;87514;-69
2024/01/15 06:19:52;;;;;;;5.53;2.80;;;2.50;99.90;1.50;98376.00;;;;4951949;28;86798;-70
2024/01/15 06:22:18;;;;;;;5.37;3.27;;;1.80;99.90;1.50;98386.00;;;;4950563;28;116258;-70
2024/01/15 06:24:43;;;;;;;4.57;2.97;;;1.60;99.90;1.50;98374.00;;;;4948613;28;117934;-70
2024/01/15 06:27:09;;;;;;;3.70;2.10;;;2.30;99.90;1.40;98383.00;;;;4961441;28;110213;-71
2024/01/15 06:29:38;;;;;;;4.73;2.87;;;1.70;99.90;1.40;98375.00;;;;4952737;28;107488;-70
2024/01/15 06:32:04;;;;;;;6.80;3.37;;;2.80;99.90;1.30;98365.00;;;;4947763;28;89794;-71
2024/01/15 06:34:30;;;;;;;3.30;2.90;;;1.90;99.90;1.30;98357.00;;;;4943296;28;117197;-71
2024/01/15 06:36:56;;;;;;;2.47;2.27;;;1.50;99.90;1.30;98378.00;;;;4948250;28;109016;-70
2024/01/15 06:39:22;;;;;;;3.60;2.47;;;1.70;99.90;1.40;98363.00;;;;4956309;28;87991;-71
2024/01/15 06:41:47;;;;;;;2.90;2.23;;;1.70;99.90;1.40;98362.00;;;;4951895;28;108684;-71
2024/01/15 06:44:13;;;;;;;3.47;2.13;;;1.60;99.90;1.40;98358.00;;;;4953259;28;87339;-73
2024/01/15 06:46:43;;;;;;;2.93;2.60;;;1.70;99.90;1.40;98363.00;;;;4950513;28;109587;-73
2024/01/15 06:49:09;;;;;;;4.47;3.20;;;2.90;99.90;1.40;98367.00;;;;4949880;28;87939;-74
2024/01/15 06:51:35;;;;;;;3.30;1.83;;;1.70;99.90;1.40;98368.00;;;;4953630;28;89397;-72
2024/01/15 06:54:01;;;;;;;3.97;3.00;;;1.60;99.90;1.40;98370.00;;;;4954492;28;118748;-72
2024/01/15 06:56:27;;;;;;;4.97;3.03;;;1.20;99.90;1.40;98383.00;;;;4952095;28;87802;-71
2024/01/15 06:58:53;;;;;;;5.77;3.27;;;1.60;99.90;1.40;98370.00;;;;4959313;28;109275;-71
2024/01/15 07:01:18;;;;;;;7.00;2.57;;;1.70;99.90;1.40;98387.00;;;;4953392;28;116494;-72
2024/01/15 07:03:44;;;;;;;4.80;2.40;;;1.70;99.90;1.40;98378.00;;;;4950774;28;116544;-72
2024/01/15 07:06:11;;;;;;;3.37;2.50;;;1.80;99.90;1.40;98387.00;;;;4957740;28;87983;-70
2024/01/15 07:08:37;;;;;;;2.50;2.10;;;1.70;99.90;1.40;98382.00;;;;4959177;28;87218;-73
2024/01/15 07:11:06;;;;;;;6.67;2.87;;;2.40;99.90;1.40;98378.00;;;;4959840;28;87850;-70
2024/01/15 07:13:32;;;;;;;3.17;2.23;;;1.70;99.90;1.40;98372.00;;;;4956162;28;90535;-70
2024/01/15 07:15:59;;;;;;;2.17;1.90;;;1.70;99.90;1.40;98383.00;;;;4956127;28;111699;-69
2024/01/15 07:18:25;;;;;;;4.63;3.03;;;1.70;99.90;1.40;98386.00;;;;4957643;28;87824;-71
2024/01/15 07:20:50;;;;;;;4.67;2.30;;;1.60;99.90;1.40;98392.00;;;;4960497;28;88400;-71
2024/01/15 07:23:17;;;;;;;2.23;2.07;;;1.70;99.90;1.40;98396.00;;;;4950353;28;116907;-72
2024/01/15 07:25:43;;;;;;;3.97;2.30;;;1.60;99.90;1.40;98401.00;;;;4958076;28;87877;-72
2024/01/15 07:28:08;;;;;;;3.97;2.77;;;1.70;99.90;1.40;98404.00;;;;4951083;28;88174;-70
2024/01/15 07:30:34;;;;;;;6.77;2.60;;;1.70;99.90;1.40;98396.00;;;;4957197;28;105414;-70
2024/01/15 07:33:00;;;;;;;7.00;2.73;;;2.40;99.90;1.40;98401.00;;;;4959026;28;88348;-71
2024/01/15 07:35:26;;;;;;;3.63;2.37;;;1.70;99.90;1.40;98402.00;;;;4955797;28;92246;-71
2024/01/15 07:37:51;;;;;;;3.07;2.47;;;1.70;99.90;1.40;98407.00;;;;4951709;28;110675;-72
2024/01/15 07:40:17;;;;;;;2.83;1.93;;;1.70;99.90;1.40;98405.00;;;;4947962;28;118526;-71
2024/01/15 07:42:43;;;;;;;5.83;2.30;;;1.70;99.90;1.40;98420.00;;;;4959541;28;118223;-71
2024/01/15 07:45:10;;;;;;;3.77;2.50;;;1.70;99.90;1.40;98416.00;;;;4957808;28;110817;-71
2024/01/15 07:47:36;;;;;;;3.37;2.17;;;1.70;99.90;1.40;98410.00;;;;4961635;28;87999;-71
2024/01/15 07:50:02;;;;;;;5.97;2.77;;;1.80;99.90;1.40;98411.00;;;;4959306;28;117011;-70
2024/01/15 07:52:28;;;;;;;8.73;1.87;;;2.50;99.90;1.40;98416.00;;;;4951597;28;104096;-70
2024/01/15 07:54:54;;;;;;;3.63;2.60;;;1.70;99.90;1.50;98423.00;;;;4960308;28;107972;-70
2024/01/15 07:57:20;;;;;;;6.30;2.50;;;1.80;99.90;1.50;98423.00;;;;4957016;28;88243;-71
2024/01/15 07:59:46;;;;;;;10.23;3.43;;;0.90;99.90;1.50;98402.00;;;;4955717;28;117388;-70
2024/01/15 08:02:11;;;;;;;2.20;2.00;;;1.90;99.90;1.50;98423.00;;;;4961219;28;115664;-71
2024/01/15 08:04:40;;;;;;;2.23;1.47;;;1.80;99.90;1.50;98408.00;;;;4961486;28;93435;-71
2024/01/15 08:07:09;;;;;;;2.43;2.17;;;2.00;99.90;1.60;98411.00;;;;4958432;28;87663;-72
2024/01/15 08:09:35;;;;;;;2.70;1.60;;;1.90;99.90;1.60;98405.00;;;;4953593;28;88863;-72
2024/01/15 08:12:00;;;;;;;3.90;1.90;;;1.90;99.90;1.60;98412.00;;;;4949185;28;113088;-72
2024/01/15 08:14:26;;;;;;;3.03;2.37;;;1.90;99.90;1.70;98417.00;;;;4962090;28;87817;-74
2024/01/15 08:16:52;;;;;;;3.17;2.37;;;1.90;99.90;1.70;98419.00;;;;4973633;28;107876;-73
2024/01/15 08:19:19;;;;;;;5.10;1.97;;;1.90;99.90;1.70;98407.00;;;;4954854;28;116007;-73
2024/01/15 08:21:45;;;;;;;2.60;2.40;;;1.90;99.90;1.70;98426.00;;;;4953152;28;88451;-72
2024/01/15 08:24:11;;;;;;;5.10;2.60;;;2.40;99.90;1.70;98413.00;;;;4958866;28;88092;-72
2024/01/15 08:26:36;;;;;;;6.90;2.77;;;2.90;99.90;1.70;98428.00;;;;4954677;28;108637;-72
2024/01/15 08:29:02;;;;;;;7.83;2.57;;;3.00;99.90;1.70;98423.00;;;;4960450;28;89000;-73
2024/01/15 08:31:28;;;;;;;5.90;2.97;;;1.90;99.90;1.70;98428.00;;;;4969567;28;117686;-74
2024/01/15 08:33:53;;;;;;;3.80;2.80;;;2.00;99.90;1.70;98424.00;;;;4952974;28;87666;-72
2024/01/15 08:36:19;;;;;;;5.77;3.20;;;1.80;99.90;1.60;98422.00;;;;4955862;28;87730;-72
2024/01/15 08:38:45;;;;;;;4.90;2.47;;;1.80;99.90;1.60;98432.00;;;;4943868;28;87981;-71
2024/01/15 08:41:11;;;;;;;4.97;3.10;;;2.00;99.90;1.60;98428.00;;;;4953920;28;89406;-71
2024/01/15 08:43:37;;;;;;;4.60;2.80;;;1.90;99.90;1.60;98427.00;;;;4954706;28;109453;-72
2024/01/15 08:46:03;;;;;;;3.63;2.67;;;2.10;99.90;1.60;98435.00;;;;4958788;28;86840;-72
2024/01/15 08:48:29;;;;;;;5.20;2.80;;;1.80;99.90;1.60;98436.00;;;;4952231;28;90130;-73
2024/01/15 08:50:55;;;;;;;4.57;3.30;;;1.90;99.90;1.50;98429.00;;;;4956521;28;87867;-71
2024/01/15 08:53:21;;;;;;;6.53;3.17;;;1.80;99.90;1.50;98448.00;;;;4957541;28;88740;-72
2024/01/15 08:55:47;;;;;;;6.07;2.73;;;1.70;99.90;1.50;98438.00;;;;4956348;28;88001;-72
2024/01/15 08:58:14;;;;;;;4.90;2.13;;;1.80;99.90;1.50;98454.00;;;;4971038;28;87766;-74
2024/01/15 09:00:39;;;;;;;4.37;2.20;;;1.70;99.90;1.50;98451.00;;;;4957976;28;88921;-74
2024/01/15 09:03:05;;;;;;;4.53;2.93;;;1.80;99.90;1.50;98448.00;;;;4951637;28;87920;-73
2024/01/15 09:05:31;;;;;;;7.33;2.90;;;1.90;99.90;1.50;98442.00;;;;4955685;28;88088;-73
2024/01/15 09:07:57;;;;;;;6.83;3.20;;;1.70;99.90;1.50;98440.00;;;;4953035;28;118940;-73
2024/01/15 09:10:23;;;;;;;3.57;2.60;;;1.90;99.90;1.60;98435.00;;;;4955665;28;87990;-73
2024/01/15 09:12:49;;;;;;;5.10;3.07;;;1.80;99.90;1.60;98449.00;;;;4959418;28;87780;-73
2024/01/15 09:15:15;;;;;;;4.50;2.80;;;1.70;99.90;1.60;98454.00;;;;4961020;28;89105;-73
2024/01/15 09:17:41;;;;;;;4.57;2.97;;;1.70;99.90;1.60;98443.00;;;;4963087;28;88877;-71
2024/01/15 09:20:08;;;;;;;3.73;2.70;;;1.90;99.90;1.60;98453.00;;;;4954410;28;118282;-72
2024/01/15 09:22:34;;;;;;;2.87;2.13;;;1.90;99.90;1.70;98445.00;;;;4958326;28;88149;-71
2024/01/15 09:24:59;;;;;;;6.43;3.87;;;2.40;99.90;1.70;98453.00;;;;4947382;28;107769;-72
2024/01/15 09:27:28;;;;;;;4.17;2.87;;;1.90;99.90;1.70;98459.00;;;;4957448;28;117772;-71
2024/01/15 09:29:54;;;;;;;5.53;2.87;;;1.80;99.90;1.70;98460.00;;;;4960212;28;88125;-71
2024/01/15 09:32:20;;;;;;;3.87;2.63;;;2.00;99.90;1.70;98465.00;;;;4957298;28;109306;-72
2024/01/15 09:34:46;;;;;;;7.20;2.60;;;1.90;99.90;1.70;98459.00;;;;4962868;28;86942;-71
2024/01/15 09:37:14;;;;;;;3.57;2.10;;;1.90;99.90;1.70;98470.00;;;;4956479;28;88450;-73
2024/01/15 09:39:39;;;;;;;6.93;2.90;;;1.90;99.90;1.70;98477.00;;;;4961254;28;88075;-72
2024/01/15 09:42:05;;;;;;;4.87;2.40;;;2.00;99.90;1.70;98474.00;;;;4955336;28;111758;-72
2024/01/15 09:44:32;;;;;;;9.17;3.13;;;2.60;99.90;1.70;98464.00;;;;4957242;28;87569;-73
2024/01/15 09:46:58;;;;;;;4.57;3.33;;;1.90;99.90;1.70;98477.00;;;;4955851;28;118631;-72
2024/01/15 09:49:24;;;;;;;3.70;2.67;;;1.90;99.90;1.80;98456.00;;;;4953034;28;118467;-72
2024/01/15 09:51:50;;;;;;;4.77;2.37;;;2.10;99.90;1.80;98455.00;;;;4954425;28;88400;-71
2024/01/15 09:54:17;;;;;;;3.13;2.20;;;2.00;99.90;1.80;98465.00;;;;4956718;28;87979;-74
2024/01/15 09:56:46;;;;;;;2.93;2.63;;;2.10;99.90;1.80;98463.00;;;;4959289;28;88684;-69
2024/01/15 09:59:16;;;;;;;1.70;1.60;;;1.90;99.90;1.90;98470.00;;;;4956924;28;87754;-72
2024/01/15 10:01:43;;;;;;;3.63;2.13;;;2.10;99.90;1.90;98441.00;;;;4958376;28;88012;-72
2024/01/15 10:04:13;;;;;;;3.50;1.80;;;2.10;99.90;2.00;98451.00;;;;4955133;28;88027;-72
2024/01/15 10:06:40;;;;;;;4.80;2.47;;;2.20;99.90;2.00;98460.00;;;;4956838;28;88903;-71
2024/01/15 10:09:07;;;;;;;2.73;1.57;;;2.60;99.90;2.10;98445.00;;;;4955266;28;89412;-70
2024/01/15 10:11:33;;;;;;;5.13;1.87;;;2.40;99.90;2.20;98439.00;;;;4957338;28;87777;-70
2024/01/15 10:13:59;;;;;;;3.50;1.50;;;2.30;99.90;2.20;98442.00;;;;4957924;28;108402;-70
2024/01/15 10:16:26;;;;;;;2.97;1.60;;;2.40;99.90;2.30;98431.00;;;;4953177;28;111724;-71
2024/01/15 10:18:52;;;;;;;4.17;2.13;;;2.50;99.90;2.30;98430.00;;;;4948709;28;116355;-71
2024/01/15 10:21:17;;;;;;;2.93;1.33;;;3.70;99.90;2.30;98434.00;;;;4955647;28;88242;-72
2024/01/15 10:23:44;;;;;;;1.77;1.67;;;2.60;99.90;2.40;98430.00;;;;4954579;28;108200;-71
2024/01/15 10:26:11;;;;;;;2.07;1.57;;;2.60;99.90;2.30;98418.00;;;;4952562;28;88621;-72
2024/01/15 10:28:37;;;;;;;1.93;1.73;;;2.60;99.90;2.40;98435.00;;;;4956752;28;88413;-72
2024/01/15 10:31:03;;;;;;;1.57;1.47;;;2.50;99.90;2.40;98429.00;;;;4958410;28;108664;-71
2024/01/15 10:33:28;;;;;;;9.00;2.07;;;2.60;99.90;2.40;98424.00;;;;4951504;28;100717;-71
2024/01/15 10:35:59;;;;;;;1.40;1.30;;;2.50;99.90;2.30;98415.00;;;;4952096;28;90099;-71
2024/01/15 10:38:25;;;;;;;6.33;1.97;;;1.50;99.90;2.40;98406.00;;;;4954537;28;88694;-71
2024/01/15 10:40:55;;;;;;;2.83;1.47;;;2.60;99.90;2.40;98434.00;;;;4957137;28;100099;-72
2024/01/15 10:43:22;;;;;;;3.13;2.00;;;2.60;99.90;2.40;98420.00;;;;4957971;28;88218;-70
2024/01/15 10:45:50;;;;;;;3.57;1.97;;;2.60;99.90;2.50;98421.00;;;;4960587;28;88949;-71
2024/01/15 10:48:19;;;;;;;1.37;1.27;;;2.80;99.90;2.50;98436.00;;;;4961031;28;96225;-72
2024/01/15 10:50:47;;;;;;;3.07;1.83;;;2.80;99.90;2.50;98439.00;;;;4956558;28;110619;-71
2024/01/15 10:53:16;;;;;;;2.77;2.10;;;2.80;99.90;2.50;98422.00;;;;4957516;28;87625;-71
2024/01/15 10:55:43;;;;;;;3.23;1.77;;;2.70;99.90;2.60;98428.00;;;;4959164;28;89269;-72
2024/01/15 10:58:09;;;;;;;3.27;1.57;;;2.70;99.90;2.60;98425.00;;;;4958035;28;89464;-70